sensor_id;sensor_type;location;lat;lon;timestamp;P1;durP1;ratioP1;P2;durP2;ratioP2
41881;SDS011;27562;47.524;12.404;2023-04-15T00:00:11;11.93;;;7.13;;
41881;SDS011;27562;47.524;12.404;2023-04-15T00:02:37;11.30;;;7.47;;
41881;SDS011;27562;47.524;12.404;2023-04-15T00:05:04;11.45;;;7.13;;
41881;SDS011;27562;47.524;12.404;2023-04-15T00:07:30;10.88;;;6.70;;
41881;SDS011;27562;47.524;12.404;2023-04-15T00:09:55;9.75;;;6.03;;
41881;SDS011;27562;47.524;12.404;2023-04-15T00:12:25;9.75;;;5.70;;
41881;SDS011;27562;47.524;12.404;2023-04-15T00:14:51;9.18;;;5.80;;
41881;SDS011;27562;47.524;12.404;2023-04-15T00:17:17;9.40;;;6.00;;
41881;SDS011;27562;47.524;12.404;2023-04-15T00:19:43;8.68;;;5.78;;
41881;SDS011;27562;47.524;12.404;2023-04-15T00:22:09;11.13;;;6.28;;
41881;SDS011;27562;47.524;12.404;2023-04-15T00:24:36;9.38;;;5.80;;
41881;SDS011;27562;47.524;12.404;2023-04-15T00:27:02;8.45;;;5.57;;
41881;SDS011;27562;47.524;12.404;2023-04-15T00:29:28;9.68;;;5.90;;
41881;SDS011;27562;47.524;12.404;2023-04-15T00:31:54;9.77;;;5.90;;
41881;SDS011;27562;47.524;12.404;2023-04-15T00:34:21;8.90;;;5.35;;
41881;SDS011;27562;47.524;12.404;2023-04-15T00:36:47;8.35;;;5.30;;
41881;SDS011;27562;47.524;12.404;2023-04-15T00:39:13;8.38;;;5.30;;
41881;SDS011;27562;47.524;12.404;2023-04-15T00:41:40;6.88;;;4.15;;
41881;SDS011;27562;47.524;12.404;2023-04-15T00:44:06;10.20;;;6.03;;
41881;SDS011;27562;47.524;12.404;2023-04-15T00:46:36;9.32;;;6.00;;
41881;SDS011;27562;47.524;12.404;2023-04-15T00:49:04;10.35;;;6.88;;
41881;SDS011;27562;47.524;12.404;2023-04-15T00:51:30;12.30;;;7.18;;
41881;SDS011;27562;47.524;12.404;2023-04-15T00:54:01;10.57;;;6.78;;
41881;SDS011;27562;47.524;12.404;2023-04-15T00:56:28;15.40;;;8.70;;
41881;SDS011;27562;47.524;12.404;2023-04-15T00:58:54;24.08;;;12.07;;
41881;SDS011;27562;47.524;12.404;2023-04-15T01:01:21;18.17;;;9.55;;
41881;SDS011;27562;47.524;12.404;2023-04-15T01:03:50;15.40;;;8.25;;
41881;SDS011;27562;47.524;12.404;2023-04-15T01:06:16;15.52;;;8.25;;
41881;SDS011;27562;47.524;12.404;2023-04-15T01:08:43;13.90;;;7.57;;
41881;SDS011;27562;47.524;12.404;2023-04-15T01:11:09;10.70;;;5.97;;
41881;SDS011;27562;47.524;12.404;2023-04-15T01:13:37;9.38;;;5.53;;
41881;SDS011;27562;47.524;12.404;2023-04-15T01:16:03;9.23;;;5.25;;
41881;SDS011;27562;47.524;12.404;2023-04-15T01:18:29;10.52;;;5.97;;
41881;SDS011;27562;47.524;12.404;2023-04-15T01:20:55;9.32;;;4.90;;
41881;SDS011;27562;47.524;12.404;2023-04-15T01:23:21;10.35;;;5.32;;
41881;SDS011;27562;47.524;12.404;2023-04-15T01:25:48;8.25;;;4.90;;
41881;SDS011;27562;47.524;12.404;2023-04-15T01:28:14;9.13;;;5.32;;
41881;SDS011;27562;47.524;12.404;2023-04-15T01:30:40;7.30;;;4.53;;
41881;SDS011;27562;47.524;12.404;2023-04-15T01:33:06;8.38;;;4.63;;
41881;SDS011;27562;47.524;12.404;2023-04-15T01:35:32;8.52;;;4.72;;
41881;SDS011;27562;47.524;12.404;2023-04-15T01:38:07;8.18;;;5.10;;
41881;SDS011;27562;47.524;12.404;2023-04-15T01:40:34;9.05;;;5.22;;
41881;SDS011;27562;47.524;12.404;2023-04-15T01:43:00;11.13;;;6.53;;
41881;SDS011;27562;47.524;12.404;2023-04-15T01:45:26;10.60;;;6.43;;
41881;SDS011;27562;47.524;12.404;2023-04-15T01:47:52;9.68;;;6.40;;
41881;SDS011;27562;47.524;12.404;2023-04-15T01:50:18;10.45;;;6.88;;
41881;SDS011;27562;47.524;12.404;2023-04-15T01:52:45;9.65;;;6.20;;
41881;SDS011;27562;47.524;12.404;2023-04-15T01:55:11;10.30;;;6.57;;
41881;SDS011;27562;47.524;12.404;2023-04-15T01:57:38;9.18;;;5.82;;
41881;SDS011;27562;47.524;12.404;2023-04-15T02:00:04;11.18;;;6.68;;
41881;SDS011;27562;47.524;12.404;2023-04-15T02:02:31;32.50;;;15.00;;
41881;SDS011;27562;47.524;12.404;2023-04-15T02:04:57;45.40;;;18.65;;
41881;SDS011;27562;47.524;12.404;2023-04-15T02:07:23;30.70;;;15.27;;
41881;SDS011;27562;47.524;12.404;2023-04-15T02:09:49;24.20;;;12.07;;
41881;SDS011;27562;47.524;12.404;2023-04-15T02:12:15;19.98;;;10.43;;
41881;SDS011;27562;47.524;12.404;2023-04-15T02:14:40;16.83;;;9.05;;
41881;SDS011;27562;47.524;12.404;2023-04-15T02:17:06;11.80;;;6.93;;
41881;SDS011;27562;47.524;12.404;2023-04-15T02:19:35;11.20;;;5.88;;
41881;SDS011;27562;47.524;12.404;2023-04-15T02:22:01;8.00;;;5.07;;
41881;SDS011;27562;47.524;12.404;2023-04-15T02:24:27;7.75;;;4.70;;
41881;SDS011;27562;47.524;12.404;2023-04-15T02:26:54;8.57;;;5.32;;
41881;SDS011;27562;47.524;12.404;2023-04-15T02:29:20;8.65;;;5.20;;
41881;SDS011;27562;47.524;12.404;2023-04-15T02:31:47;8.05;;;4.82;;
41881;SDS011;27562;47.524;12.404;2023-04-15T02:34:12;8.13;;;5.15;;
41881;SDS011;27562;47.524;12.404;2023-04-15T02:36:38;8.50;;;5.68;;
41881;SDS011;27562;47.524;12.404;2023-04-15T02:39:05;11.38;;;6.07;;
41881;SDS011;27562;47.524;12.404;2023-04-15T02:41:31;10.73;;;6.43;;
41881;SDS011;27562;47.524;12.404;2023-04-15T02:43:57;9.10;;;5.70;;
41881;SDS011;27562;47.524;12.404;2023-04-15T02:46:22;10.73;;;5.88;;
41881;SDS011;27562;47.524;12.404;2023-04-15T02:48:49;9.85;;;6.25;;
41881;SDS011;27562;47.524;12.404;2023-04-15T02:53:43;11.48;;;6.50;;
41881;SDS011;27562;47.524;12.404;2023-04-15T02:56:09;11.50;;;6.38;;
41881;SDS011;27562;47.524;12.404;2023-04-15T02:58:35;11.57;;;6.82;;
41881;SDS011;27562;47.524;12.404;2023-04-15T03:01:01;10.82;;;6.60;;
41881;SDS011;27562;47.524;12.404;2023-04-15T03:03:27;11.35;;;6.78;;
41881;SDS011;27562;47.524;12.404;2023-04-15T03:05:52;11.52;;;6.93;;
41881;SDS011;27562;47.524;12.404;2023-04-15T03:08:18;10.20;;;6.55;;
41881;SDS011;27562;47.524;12.404;2023-04-15T03:10:45;9.38;;;6.30;;
41881;SDS011;27562;47.524;12.404;2023-04-15T03:13:11;12.60;;;7.45;;
41881;SDS011;27562;47.524;12.404;2023-04-15T03:15:37;10.30;;;6.22;;
41881;SDS011;27562;47.524;12.404;2023-04-15T03:18:02;10.52;;;6.65;;
41881;SDS011;27562;47.524;12.404;2023-04-15T03:20:28;9.57;;;6.45;;
41881;SDS011;27562;47.524;12.404;2023-04-15T03:22:54;12.15;;;7.22;;
41881;SDS011;27562;47.524;12.404;2023-04-15T03:25:20;10.48;;;6.53;;
41881;SDS011;27562;47.524;12.404;2023-04-15T03:27:46;10.38;;;6.88;;
41881;SDS011;27562;47.524;12.404;2023-04-15T03:30:11;11.18;;;7.03;;
41881;SDS011;27562;47.524;12.404;2023-04-15T03:32:37;10.80;;;6.25;;
41881;SDS011;27562;47.524;12.404;2023-04-15T03:35:03;10.35;;;6.50;;
41881;SDS011;27562;47.524;12.404;2023-04-15T03:37:30;8.93;;;6.18;;
41881;SDS011;27562;47.524;12.404;2023-04-15T03:39:56;12.23;;;7.05;;
41881;SDS011;27562;47.524;12.404;2023-04-15T03:42:22;11.10;;;6.38;;
41881;SDS011;27562;47.524;12.404;2023-04-15T03:44:47;12.85;;;7.30;;
41881;SDS011;27562;47.524;12.404;2023-04-15T03:47:13;15.93;;;8.23;;
41881;SDS011;27562;47.524;12.404;2023-04-15T03:49:39;13.52;;;7.82;;
41881;SDS011;27562;47.524;12.404;2023-04-15T03:52:05;17.55;;;9.48;;
41881;SDS011;27562;47.524;12.404;2023-04-15T03:54:31;16.63;;;9.55;;
41881;SDS011;27562;47.524;12.404;2023-04-15T03:56:57;16.13;;;9.18;;
41881;SDS011;27562;47.524;12.404;2023-04-15T03:59:22;19.27;;;10.73;;
41881;SDS011;27562;47.524;12.404;2023-04-15T04:01:48;18.77;;;11.50;;
41881;SDS011;27562;47.524;12.404;2023-04-15T04:04:14;18.75;;;10.73;;
41881;SDS011;27562;47.524;12.404;2023-04-15T04:06:39;17.23;;;10.20;;
41881;SDS011;27562;47.524;12.404;2023-04-15T04:09:05;20.10;;;11.07;;
41881;SDS011;27562;47.524;12.404;2023-04-15T04:11:31;17.95;;;10.43;;
41881;SDS011;27562;47.524;12.404;2023-04-15T04:13:57;18.75;;;10.88;;
41881;SDS011;27562;47.524;12.404;2023-04-15T04:16:22;22.02;;;12.27;;
41881;SDS011;27562;47.524;12.404;2023-04-15T04:18:48;21.05;;;11.40;;
41881;SDS011;27562;47.524;12.404;2023-04-15T04:21:14;19.40;;;11.60;;
41881;SDS011;27562;47.524;12.404;2023-04-15T04:23:40;20.90;;;11.80;;
41881;SDS011;27562;47.524;12.404;2023-04-15T04:26:06;20.88;;;11.07;;
41881;SDS011;27562;47.524;12.404;2023-04-15T04:28:32;19.30;;;11.25;;
41881;SDS011;27562;47.524;12.404;2023-04-15T04:30:57;19.60;;;11.13;;
41881;SDS011;27562;47.524;12.404;2023-04-15T04:33:23;17.88;;;10.65;;
41881;SDS011;27562;47.524;12.404;2023-04-15T04:35:49;15.88;;;9.77;;
41881;SDS011;27562;47.524;12.404;2023-04-15T04:38:14;15.20;;;9.30;;
41881;SDS011;27562;47.524;12.404;2023-04-15T04:40:40;19.23;;;11.43;;
41881;SDS011;27562;47.524;12.404;2023-04-15T04:43:06;19.13;;;11.32;;
41881;SDS011;27562;47.524;12.404;2023-04-15T04:45:32;18.30;;;10.60;;
41881;SDS011;27562;47.524;12.404;2023-04-15T04:47:57;20.92;;;12.52;;
41881;SDS011;27562;47.524;12.404;2023-04-15T04:50:23;23.00;;;13.98;;
41881;SDS011;27562;47.524;12.404;2023-04-15T04:52:49;29.83;;;19.63;;
41881;SDS011;27562;47.524;12.404;2023-04-15T04:55:15;28.20;;;18.27;;
41881;SDS011;27562;47.524;12.404;2023-04-15T04:57:40;19.67;;;13.00;;
41881;SDS011;27562;47.524;12.404;2023-04-15T05:00:06;18.23;;;12.48;;
41881;SDS011;27562;47.524;12.404;2023-04-15T05:02:33;15.80;;;10.70;;
41881;SDS011;27562;47.524;12.404;2023-04-15T05:04:59;16.98;;;10.50;;
41881;SDS011;27562;47.524;12.404;2023-04-15T05:07:25;19.73;;;12.02;;
41881;SDS011;27562;47.524;12.404;2023-04-15T05:09:51;18.85;;;11.07;;
41881;SDS011;27562;47.524;12.404;2023-04-15T05:12:17;19.27;;;10.95;;
41881;SDS011;27562;47.524;12.404;2023-04-15T05:14:43;18.80;;;11.20;;
41881;SDS011;27562;47.524;12.404;2023-04-15T05:17:08;17.85;;;10.45;;
41881;SDS011;27562;47.524;12.404;2023-04-15T05:19:35;17.70;;;10.73;;
41881;SDS011;27562;47.524;12.404;2023-04-15T05:22:01;19.35;;;10.55;;
41881;SDS011;27562;47.524;12.404;2023-04-15T05:24:27;22.58;;;12.80;;
41881;SDS011;27562;47.524;12.404;2023-04-15T05:26:53;21.33;;;11.57;;
41881;SDS011;27562;47.524;12.404;2023-04-15T05:29:18;22.20;;;12.77;;
41881;SDS011;27562;47.524;12.404;2023-04-15T05:31:44;23.52;;;13.65;;
41881;SDS011;27562;47.524;12.404;2023-04-15T05:34:10;26.85;;;14.15;;
41881;SDS011;27562;47.524;12.404;2023-04-15T05:36:36;26.10;;;13.13;;
41881;SDS011;27562;47.524;12.404;2023-04-15T05:39:02;19.63;;;11.70;;
41881;SDS011;27562;47.524;12.404;2023-04-15T05:41:28;20.67;;;12.32;;
41881;SDS011;27562;47.524;12.404;2023-04-15T05:43:54;21.90;;;12.50;;
41881;SDS011;27562;47.524;12.404;2023-04-15T05:46:19;19.88;;;11.95;;
41881;SDS011;27562;47.524;12.404;2023-04-15T05:48:45;20.20;;;12.90;;
41881;SDS011;27562;47.524;12.404;2023-04-15T05:51:11;18.63;;;10.85;;
41881;SDS011;27562;47.524;12.404;2023-04-15T05:53:36;19.02;;;10.27;;
41881;SDS011;27562;47.524;12.404;2023-04-15T05:56:02;16.55;;;9.73;;
41881;SDS011;27562;47.524;12.404;2023-04-15T05:58:28;18.85;;;10.85;;
41881;SDS011;27562;47.524;12.404;2023-04-15T06:00:54;16.30;;;10.40;;
41881;SDS011;27562;47.524;12.404;2023-04-15T06:03:20;20.10;;;11.60;;
41881;SDS011;27562;47.524;12.404;2023-04-15T06:05:47;16.33;;;9.75;;
41881;SDS011;27562;47.524;12.404;2023-04-15T06:08:12;28.08;;;15.55;;
41881;SDS011;27562;47.524;12.404;2023-04-15T06:10:38;104.95;;;50.05;;
41881;SDS011;27562;47.524;12.404;2023-04-15T06:13:04;16.65;;;10.20;;
41881;SDS011;27562;47.524;12.404;2023-04-15T06:15:30;14.88;;;9.32;;
41881;SDS011;27562;47.524;12.404;2023-04-15T06:17:56;14.52;;;9.02;;
41881;SDS011;27562;47.524;12.404;2023-04-15T06:20:21;13.68;;;8.40;;
41881;SDS011;27562;47.524;12.404;2023-04-15T06:22:48;13.65;;;7.97;;
41881;SDS011;27562;47.524;12.404;2023-04-15T06:25:13;10.93;;;7.28;;
41881;SDS011;27562;47.524;12.404;2023-04-15T06:27:39;12.93;;;8.20;;
41881;SDS011;27562;47.524;12.404;2023-04-15T06:30:05;12.88;;;8.75;;
41881;SDS011;27562;47.524;12.404;2023-04-15T06:32:31;13.05;;;8.57;;
41881;SDS011;27562;47.524;12.404;2023-04-15T06:34:57;11.32;;;7.50;;
41881;SDS011;27562;47.524;12.404;2023-04-15T06:37:23;11.52;;;7.25;;
41881;SDS011;27562;47.524;12.404;2023-04-15T06:39:49;13.43;;;8.48;;
41881;SDS011;27562;47.524;12.404;2023-04-15T06:42:14;12.88;;;7.53;;
41881;SDS011;27562;47.524;12.404;2023-04-15T06:44:40;13.18;;;8.75;;
41881;SDS011;27562;47.524;12.404;2023-04-15T06:47:06;13.55;;;8.23;;
41881;SDS011;27562;47.524;12.404;2023-04-15T06:49:33;12.02;;;7.60;;
41881;SDS011;27562;47.524;12.404;2023-04-15T06:51:59;17.50;;;10.98;;
41881;SDS011;27562;47.524;12.404;2023-04-15T06:54:25;13.23;;;8.25;;
41881;SDS011;27562;47.524;12.404;2023-04-15T06:56:51;13.73;;;8.35;;
41881;SDS011;27562;47.524;12.404;2023-04-15T06:59:17;14.80;;;8.73;;
41881;SDS011;27562;47.524;12.404;2023-04-15T07:01:43;13.13;;;7.68;;
41881;SDS011;27562;47.524;12.404;2023-04-15T07:04:08;11.98;;;7.18;;
41881;SDS011;27562;47.524;12.404;2023-04-15T07:06:35;10.48;;;6.57;;
41881;SDS011;27562;47.524;12.404;2023-04-15T07:09:00;11.85;;;7.78;;
41881;SDS011;27562;47.524;12.404;2023-04-15T07:11:28;12.00;;;7.82;;
41881;SDS011;27562;47.524;12.404;2023-04-15T07:13:54;13.38;;;8.70;;
41881;SDS011;27562;47.524;12.404;2023-04-15T07:16:21;12.90;;;8.43;;
41881;SDS011;27562;47.524;12.404;2023-04-15T07:18:47;13.77;;;8.38;;
41881;SDS011;27562;47.524;12.404;2023-04-15T07:21:13;11.98;;;8.02;;
41881;SDS011;27562;47.524;12.404;2023-04-15T07:23:38;11.43;;;7.35;;
41881;SDS011;27562;47.524;12.404;2023-04-15T07:26:04;12.05;;;7.30;;
41881;SDS011;27562;47.524;12.404;2023-04-15T07:28:30;13.98;;;8.82;;
41881;SDS011;27562;47.524;12.404;2023-04-15T07:30:55;11.63;;;7.07;;
41881;SDS011;27562;47.524;12.404;2023-04-15T07:33:22;11.02;;;6.85;;
41881;SDS011;27562;47.524;12.404;2023-04-15T07:35:47;12.30;;;7.50;;
41881;SDS011;27562;47.524;12.404;2023-04-15T07:38:14;7.07;;;3.63;;
41881;SDS011;27562;47.524;12.404;2023-04-15T07:40:39;6.22;;;3.65;;
41881;SDS011;27562;47.524;12.404;2023-04-15T07:43:06;7.95;;;3.60;;
41881;SDS011;27562;47.524;12.404;2023-04-15T07:45:33;6.88;;;3.65;;
41881;SDS011;27562;47.524;12.404;2023-04-15T07:48:00;7.93;;;3.92;;
41881;SDS011;27562;47.524;12.404;2023-04-15T07:50:26;5.53;;;3.47;;
41881;SDS011;27562;47.524;12.404;2023-04-15T07:52:52;6.28;;;3.28;;
41881;SDS011;27562;47.524;12.404;2023-04-15T07:55:18;5.80;;;3.45;;
41881;SDS011;27562;47.524;12.404;2023-04-15T07:57:47;8.65;;;4.03;;
41881;SDS011;27562;47.524;12.404;2023-04-15T08:00:13;5.38;;;3.05;;
41881;SDS011;27562;47.524;12.404;2023-04-15T08:02:40;5.13;;;2.65;;
41881;SDS011;27562;47.524;12.404;2023-04-15T08:05:07;7.95;;;2.90;;
41881;SDS011;27562;47.524;12.404;2023-04-15T08:07:35;3.92;;;2.55;;
41881;SDS011;27562;47.524;12.404;2023-04-15T08:10:01;6.00;;;3.20;;
41881;SDS011;27562;47.524;12.404;2023-04-15T08:12:27;6.15;;;2.90;;
41881;SDS011;27562;47.524;12.404;2023-04-15T08:14:53;5.28;;;2.60;;
41881;SDS011;27562;47.524;12.404;2023-04-15T08:17:20;4.32;;;2.63;;
41881;SDS011;27562;47.524;12.404;2023-04-15T08:19:45;7.10;;;3.55;;
41881;SDS011;27562;47.524;12.404;2023-04-15T08:22:12;8.35;;;3.78;;
41881;SDS011;27562;47.524;12.404;2023-04-15T08:24:38;10.23;;;3.55;;
41881;SDS011;27562;47.524;12.404;2023-04-15T08:27:04;4.80;;;2.88;;
41881;SDS011;27562;47.524;12.404;2023-04-15T08:29:33;6.53;;;2.88;;
41881;SDS011;27562;47.524;12.404;2023-04-15T08:31:59;6.50;;;3.35;;
41881;SDS011;27562;47.524;12.404;2023-04-15T08:34:26;7.30;;;4.10;;
41881;SDS011;27562;47.524;12.404;2023-04-15T08:36:52;9.60;;;5.05;;
41881;SDS011;27562;47.524;12.404;2023-04-15T08:39:17;8.52;;;4.20;;
41881;SDS011;27562;47.524;12.404;2023-04-15T08:41:47;8.10;;;3.92;;
41881;SDS011;27562;47.524;12.404;2023-04-15T08:44:18;7.18;;;3.70;;
41881;SDS011;27562;47.524;12.404;2023-04-15T08:46:45;7.13;;;3.60;;
41881;SDS011;27562;47.524;12.404;2023-04-15T08:49:12;9.27;;;3.75;;
41881;SDS011;27562;47.524;12.404;2023-04-15T08:51:39;6.30;;;3.42;;
41881;SDS011;27562;47.524;12.404;2023-04-15T08:54:06;10.45;;;4.55;;
41881;SDS011;27562;47.524;12.404;2023-04-15T08:56:33;7.18;;;3.67;;
41881;SDS011;27562;47.524;12.404;2023-04-15T08:58:59;7.15;;;3.97;;
41881;SDS011;27562;47.524;12.404;2023-04-15T09:01:25;7.93;;;3.60;;
41881;SDS011;27562;47.524;12.404;2023-04-15T09:03:52;9.18;;;3.58;;
41881;SDS011;27562;47.524;12.404;2023-04-15T09:06:19;7.03;;;3.78;;
41881;SDS011;27562;47.524;12.404;2023-04-15T09:08:46;10.40;;;5.47;;
41881;SDS011;27562;47.524;12.404;2023-04-15T09:11:12;8.63;;;3.97;;
41881;SDS011;27562;47.524;12.404;2023-04-15T09:13:38;8.85;;;3.60;;
41881;SDS011;27562;47.524;12.404;2023-04-15T09:16:05;7.63;;;3.40;;
41881;SDS011;27562;47.524;12.404;2023-04-15T09:18:32;5.90;;;2.70;;
41881;SDS011;27562;47.524;12.404;2023-04-15T09:21:17;9.25;;;3.03;;
41881;SDS011;27562;47.524;12.404;2023-04-15T09:23:54;5.88;;;2.88;;
41881;SDS011;27562;47.524;12.404;2023-04-15T09:26:31;6.22;;;3.42;;
41881;SDS011;27562;47.524;12.404;2023-04-15T09:29:05;7.38;;;3.80;;
41881;SDS011;27562;47.524;12.404;2023-04-15T09:31:37;6.85;;;3.88;;
41881;SDS011;27562;47.524;12.404;2023-04-15T09:34:03;6.55;;;3.72;;
41881;SDS011;27562;47.524;12.404;2023-04-15T09:36:35;5.65;;;3.53;;
41881;SDS011;27562;47.524;12.404;2023-04-15T09:39:22;5.10;;;2.67;;
41881;SDS011;27562;47.524;12.404;2023-04-15T09:42:09;5.22;;;3.42;;
41881;SDS011;27562;47.524;12.404;2023-04-15T09:44:35;12.57;;;5.45;;
41881;SDS011;27562;47.524;12.404;2023-04-15T09:47:01;11.27;;;4.63;;
41881;SDS011;27562;47.524;12.404;2023-04-15T09:49:27;9.07;;;4.03;;
41881;SDS011;27562;47.524;12.404;2023-04-15T09:51:57;10.63;;;4.10;;
41881;SDS011;27562;47.524;12.404;2023-04-15T09:54:27;8.98;;;4.53;;
41881;SDS011;27562;47.524;12.404;2023-04-15T09:57:09;8.52;;;4.00;;
41881;SDS011;27562;47.524;12.404;2023-04-15T09:59:36;5.80;;;3.47;;
41881;SDS011;27562;47.524;12.404;2023-04-15T10:02:03;7.85;;;2.95;;
41881;SDS011;27562;47.524;12.404;2023-04-15T10:04:31;8.43;;;3.53;;
41881;SDS011;27562;47.524;12.404;2023-04-15T10:07:00;7.78;;;3.47;;
41881;SDS011;27562;47.524;12.404;2023-04-15T10:09:29;4.75;;;2.67;;
41881;SDS011;27562;47.524;12.404;2023-04-15T10:11:55;5.15;;;3.17;;
41881;SDS011;27562;47.524;12.404;2023-04-15T10:14:21;6.80;;;3.13;;
41881;SDS011;27562;47.524;12.404;2023-04-15T10:16:49;5.88;;;2.78;;
41881;SDS011;27562;47.524;12.404;2023-04-15T10:19:17;5.32;;;2.25;;
41881;SDS011;27562;47.524;12.404;2023-04-15T10:21:49;5.40;;;3.00;;
41881;SDS011;27562;47.524;12.404;2023-04-15T10:24:16;4.35;;;2.55;;
41881;SDS011;27562;47.524;12.404;2023-04-15T10:26:42;4.57;;;2.17;;
41881;SDS011;27562;47.524;12.404;2023-04-15T10:29:09;7.13;;;3.47;;
41881;SDS011;27562;47.524;12.404;2023-04-15T10:31:35;6.00;;;2.67;;
41881;SDS011;27562;47.524;12.404;2023-04-15T10:34:02;8.82;;;4.00;;
41881;SDS011;27562;47.524;12.404;2023-04-15T10:36:31;9.52;;;3.72;;
41881;SDS011;27562;47.524;12.404;2023-04-15T10:38:57;14.55;;;6.43;;
41881;SDS011;27562;47.524;12.404;2023-04-15T10:41:23;10.93;;;5.93;;
41881;SDS011;27562;47.524;12.404;2023-04-15T10:49:13;9.18;;;4.97;;
41881;SDS011;27562;47.524;12.404;2023-04-15T10:51:45;10.40;;;5.43;;
41881;SDS011;27562;47.524;12.404;2023-04-15T10:59:36;10.02;;;5.05;;
41881;SDS011;27562;47.524;12.404;2023-04-15T11:13:02;12.00;;;5.60;;
41881;SDS011;27562;47.524;12.404;2023-04-15T11:15:39;9.20;;;4.25;;
41881;SDS011;27562;47.524;12.404;2023-04-15T11:18:13;8.68;;;4.03;;
41881;SDS011;27562;47.524;12.404;2023-04-15T11:20:42;12.82;;;4.90;;
41881;SDS011;27562;47.524;12.404;2023-04-15T11:23:09;8.35;;;3.47;;
41881;SDS011;27562;47.524;12.404;2023-04-15T11:25:35;8.15;;;3.67;;
41881;SDS011;27562;47.524;12.404;2023-04-15T11:28:01;8.15;;;3.70;;
41881;SDS011;27562;47.524;12.404;2023-04-15T11:30:28;8.48;;;3.88;;
41881;SDS011;27562;47.524;12.404;2023-04-15T11:32:59;4.97;;;2.63;;
41881;SDS011;27562;47.524;12.404;2023-04-15T11:35:26;8.38;;;3.85;;
41881;SDS011;27562;47.524;12.404;2023-04-15T11:37:52;8.15;;;4.07;;
41881;SDS011;27562;47.524;12.404;2023-04-15T11:40:25;17.42;;;5.93;;
41881;SDS011;27562;47.524;12.404;2023-04-15T11:45:46;12.80;;;4.07;;
41881;SDS011;27562;47.524;12.404;2023-04-15T11:48:12;6.43;;;3.00;;
41881;SDS011;27562;47.524;12.404;2023-04-15T11:50:38;8.55;;;3.72;;
41881;SDS011;27562;47.524;12.404;2023-04-15T11:53:05;7.22;;;3.33;;
41881;SDS011;27562;47.524;12.404;2023-04-15T11:55:51;5.75;;;3.08;;
41881;SDS011;27562;47.524;12.404;2023-04-15T11:58:18;10.32;;;5.30;;
41881;SDS011;27562;47.524;12.404;2023-04-15T12:00:52;15.57;;;7.10;;
41881;SDS011;27562;47.524;12.404;2023-04-15T12:03:27;25.85;;;11.98;;
41881;SDS011;27562;47.524;12.404;2023-04-15T12:06:08;23.95;;;11.32;;
41881;SDS011;27562;47.524;12.404;2023-04-15T12:11:38;16.42;;;10.20;;
41881;SDS011;27562;47.524;12.404;2023-04-15T12:14:09;9.00;;;3.55;;
41881;SDS011;27562;47.524;12.404;2023-04-15T12:19:10;13.95;;;7.07;;
41881;SDS011;27562;47.524;12.404;2023-04-15T12:21:38;9.05;;;4.38;;
41881;SDS011;27562;47.524;12.404;2023-04-15T12:24:06;6.32;;;2.35;;
41881;SDS011;27562;47.524;12.404;2023-04-15T12:26:34;4.75;;;2.70;;
41881;SDS011;27562;47.524;12.404;2023-04-15T12:29:07;5.60;;;3.40;;
41881;SDS011;27562;47.524;12.404;2023-04-15T12:31:34;7.18;;;3.00;;
41881;SDS011;27562;47.524;12.404;2023-04-15T12:34:01;15.32;;;7.22;;
41881;SDS011;27562;47.524;12.404;2023-04-15T12:36:28;9.98;;;4.82;;
41881;SDS011;27562;47.524;12.404;2023-04-15T12:39:00;7.28;;;3.22;;
41881;SDS011;27562;47.524;12.404;2023-04-15T12:41:27;6.57;;;3.35;;
41881;SDS011;27562;47.524;12.404;2023-04-15T12:43:53;9.00;;;4.05;;
41881;SDS011;27562;47.524;12.404;2023-04-15T12:46:18;9.70;;;3.83;;
41881;SDS011;27562;47.524;12.404;2023-04-15T12:48:44;5.72;;;2.42;;
41881;SDS011;27562;47.524;12.404;2023-04-15T12:51:10;7.63;;;2.80;;
41881;SDS011;27562;47.524;12.404;2023-04-15T12:53:36;6.60;;;3.30;;
41881;SDS011;27562;47.524;12.404;2023-04-15T12:56:01;7.60;;;3.38;;
41881;SDS011;27562;47.524;12.404;2023-04-15T12:58:28;8.18;;;2.88;;
41881;SDS011;27562;47.524;12.404;2023-04-15T13:00:54;4.22;;;2.20;;
41881;SDS011;27562;47.524;12.404;2023-04-15T13:03:20;5.45;;;2.30;;
41881;SDS011;27562;47.524;12.404;2023-04-15T13:05:45;4.40;;;1.80;;
41881;SDS011;27562;47.524;12.404;2023-04-15T13:08:11;4.75;;;2.05;;
41881;SDS011;27562;47.524;12.404;2023-04-15T13:10:37;3.97;;;2.15;;
41881;SDS011;27562;47.524;12.404;2023-04-15T13:13:03;6.60;;;2.85;;
41881;SDS011;27562;47.524;12.404;2023-04-15T13:15:29;8.55;;;2.90;;
41881;SDS011;27562;47.524;12.404;2023-04-15T13:17:55;16.70;;;4.57;;
41881;SDS011;27562;47.524;12.404;2023-04-15T13:20:21;11.27;;;3.95;;
41881;SDS011;27562;47.524;12.404;2023-04-15T13:22:47;11.70;;;4.15;;
41881;SDS011;27562;47.524;12.404;2023-04-15T13:25:13;11.85;;;4.25;;
41881;SDS011;27562;47.524;12.404;2023-04-15T13:27:39;9.23;;;4.07;;
41881;SDS011;27562;47.524;12.404;2023-04-15T13:30:05;8.30;;;3.28;;
41881;SDS011;27562;47.524;12.404;2023-04-15T13:32:32;7.55;;;3.65;;
41881;SDS011;27562;47.524;12.404;2023-04-15T13:34:58;9.68;;;4.40;;
41881;SDS011;27562;47.524;12.404;2023-04-15T13:37:27;6.38;;;3.40;;
41881;SDS011;27562;47.524;12.404;2023-04-15T13:39:54;5.97;;;2.42;;
41881;SDS011;27562;47.524;12.404;2023-04-15T13:42:20;4.80;;;2.17;;
41881;SDS011;27562;47.524;12.404;2023-04-15T13:44:46;4.00;;;2.17;;
41881;SDS011;27562;47.524;12.404;2023-04-15T13:47:13;3.63;;;2.00;;
41881;SDS011;27562;47.524;12.404;2023-04-15T13:49:40;3.75;;;2.03;;
41881;SDS011;27562;47.524;12.404;2023-04-15T13:52:06;7.00;;;2.50;;
41881;SDS011;27562;47.524;12.404;2023-04-15T13:54:31;4.38;;;2.08;;
41881;SDS011;27562;47.524;12.404;2023-04-15T13:56:57;3.42;;;1.60;;
41881;SDS011;27562;47.524;12.404;2023-04-15T13:59:23;2.70;;;1.88;;
41881;SDS011;27562;47.524;12.404;2023-04-15T14:01:48;4.13;;;1.60;;
41881;SDS011;27562;47.524;12.404;2023-04-15T14:04:14;3.20;;;1.55;;
41881;SDS011;27562;47.524;12.404;2023-04-15T14:06:40;3.63;;;1.80;;
41881;SDS011;27562;47.524;12.404;2023-04-15T14:09:05;4.18;;;1.70;;
41881;SDS011;27562;47.524;12.404;2023-04-15T14:11:31;3.67;;;1.52;;
41881;SDS011;27562;47.524;12.404;2023-04-15T14:13:59;3.17;;;1.63;;
41881;SDS011;27562;47.524;12.404;2023-04-15T14:16:25;3.10;;;1.58;;
41881;SDS011;27562;47.524;12.404;2023-04-15T14:18:50;3.17;;;1.83;;
41881;SDS011;27562;47.524;12.404;2023-04-15T14:21:16;4.57;;;2.10;;
41881;SDS011;27562;47.524;12.404;2023-04-15T14:23:42;4.63;;;2.13;;
41881;SDS011;27562;47.524;12.404;2023-04-15T14:26:08;4.53;;;2.03;;
41881;SDS011;27562;47.524;12.404;2023-04-15T14:28:33;3.25;;;1.85;;
41881;SDS011;27562;47.524;12.404;2023-04-15T14:30:59;4.70;;;1.90;;
41881;SDS011;27562;47.524;12.404;2023-04-15T14:33:25;2.90;;;1.60;;
41881;SDS011;27562;47.524;12.404;2023-04-15T14:35:51;9.05;;;4.00;;
41881;SDS011;27562;47.524;12.404;2023-04-15T14:38:17;5.80;;;3.33;;
41881;SDS011;27562;47.524;12.404;2023-04-15T14:40:42;9.07;;;5.40;;
41881;SDS011;27562;47.524;12.404;2023-04-15T14:43:09;7.82;;;4.50;;
41881;SDS011;27562;47.524;12.404;2023-04-15T14:45:36;9.38;;;5.93;;
41881;SDS011;27562;47.524;12.404;2023-04-15T14:48:02;10.68;;;6.07;;
41881;SDS011;27562;47.524;12.404;2023-04-15T14:50:30;6.82;;;4.28;;
41881;SDS011;27562;47.524;12.404;2023-04-15T14:52:56;8.90;;;4.07;;
41881;SDS011;27562;47.524;12.404;2023-04-15T14:55:23;8.13;;;4.72;;